»·PEaware :: N516DM KWHP-KSBA

N516DM :: KWHP-KSBA

FLIGHT INFORMATION

Flight Status: Arrived
Operator: Privately registered:
United States
More flights under this callsign
Pilot: David Y. (6503)
Aircraft: CESSNA 182 SKYLANE
(C182)
More flights by this aircraft type
Origin: KWHP Whiteman
United States
Destination: KSBA Santa Barbara Mun
United States
More flights between these airports :: More routes between these airports
Route: WHP1 VNY V186 DEANO V27 KWANG
File this flight plan on PilotEdge
Remarks: Instrument student. If able, please assign a hold somewhere along route for practice, thanks.
Altitude:
(Current/Filed)
6,000ft
Speed:
(Current/Filed)
140kts
Departed: 11-Nov-23 03:36 PM
Arrived: 11-Nov-23 04:18 PM
Distance/Time
Traveled:
72nm/0:41
Distance/Time
To Go:
Arrived

Flight Plot

Page will automatically refresh every two minutes.

Flight plan parsing failed; only flown route is shown


Map Options




Map Legend


Flown Route
Filed Route
Departure Airport
Arrival Airport
Navaid (VOR, NDB)
Fix

Horizontal Profiles

Position Reports

Time Latitude Longitude Heading Altitude Ground
Speed
11-Nov-23 15:14 34.261660 -118.414904 319 1006ft 0kts
11-Nov-23 15:15 34.261660 -118.414904 319 1006ft 0kts
11-Nov-23 15:16 34.261660 -118.414904 319 1006ft 0kts
11-Nov-23 15:17 34.261660 -118.414904 319 1006ft 0kts
11-Nov-23 15:18 34.261660 -118.414904 319 1006ft 0kts
11-Nov-23 15:19 34.261661 -118.414905 319 1006ft 0kts
11-Nov-23 15:20 34.261664 -118.414907 319 1006ft 0kts
11-Nov-23 15:21 34.261666 -118.414909 319 1006ft 0kts
11-Nov-23 15:22 34.261668 -118.414912 319 1006ft 0kts
11-Nov-23 15:23 34.261671 -118.414914 319 1006ft 0kts
11-Nov-23 15:24 34.261673 -118.414917 319 1006ft 0kts
11-Nov-23 15:25 34.261676 -118.414919 319 1006ft 0kts
11-Nov-23 15:26 34.261678 -118.414922 319 1006ft 0kts
11-Nov-23 15:27 34.261681 -118.414924 319 1006ft 0kts
11-Nov-23 15:28 34.261683 -118.414927 319 1006ft 0kts
11-Nov-23 15:29 34.261685 -118.414929 319 1006ft 0kts
11-Nov-23 15:30 34.260892 -118.414517 136 1006ft 14kts
11-Nov-23 15:31 34.257699 -118.411130 139 1006ft 15kts
11-Nov-23 15:32 34.255540 -118.408883 176 1006ft 0kts
11-Nov-23 15:33 34.255539 -118.408882 176 1006ft 0kts
11-Nov-23 15:34 34.255370 -118.408896 187 1006ft 11kts
11-Nov-23 15:35 34.266661 -118.422345 300 1339ft 85kts
11-Nov-23 15:36 34.270861 -118.450890 271 2129ft 91kts
11-Nov-23 15:37 34.271610 -118.481715 270 2801ft 89kts
11-Nov-23 15:38 34.275316 -118.514004 317 3500ft 115kts
11-Nov-23 15:39 34.304642 -118.527545 338 4235ft 105kts
11-Nov-23 15:40 34.323483 -118.546242 257 5009ft 102kts
11-Nov-23 15:41 34.299226 -118.546809 149 5723ft 110kts
11-Nov-23 15:42 34.270870 -118.526260 148 5999ft 133kts
11-Nov-23 15:43 34.236303 -118.518934 233 5986ft 145kts
11-Nov-23 15:44 34.246691 -118.564126 297 5998ft 152kts
11-Nov-23 15:45 34.262901 -118.607116 293 5996ft 134kts
11-Nov-23 15:46 34.276791 -118.647154 293 6008ft 126kts
11-Nov-23 15:47 34.291017 -118.688656 293 6026ft 141kts
11-Nov-23 15:48 34.306235 -118.733186 293 6018ft 146kts
11-Nov-23 15:49 34.320644 -118.775427 293 6011ft 129kts
11-Nov-23 15:50 34.334286 -118.815452 293 6022ft 130kts
11-Nov-23 15:51 34.348014 -118.855791 293 6020ft 129kts
11-Nov-23 15:52 34.355785 -118.897180 265 6032ft 130kts
11-Nov-23 15:53 34.352361 -118.941360 266 6017ft 132kts
11-Nov-23 15:54 34.349090 -118.985679 266 6008ft 132kts
11-Nov-23 15:55 34.345814 -119.030177 266 6004ft 132kts
11-Nov-23 15:56 34.342467 -119.075545 266 6002ft 139kts
11-Nov-23 15:57 34.339069 -119.121218 266 5994ft 134kts
11-Nov-23 15:58 34.335737 -119.165725 266 5996ft 132kts
11-Nov-23 15:59 34.332355 -119.210835 266 6003ft 136kts
11-Nov-23 16:00 34.328933 -119.256033 266 5998ft 133kts
11-Nov-23 16:01 34.325547 -119.300579 266 5999ft 132kts
11-Nov-23 16:02 34.322149 -119.345062 266 6001ft 132kts
11-Nov-23 16:03 34.318746 -119.389431 266 6003ft 132kts
11-Nov-23 16:04 34.315324 -119.433900 266 6004ft 132kts
11-Nov-23 16:05 34.307200 -119.476667 238 5965ft 136kts
11-Nov-23 16:06 34.289698 -119.515218 277 5421ft 126kts
11-Nov-23 16:07 34.299597 -119.555789 288 4834ft 129kts
11-Nov-23 16:08 34.310582 -119.597609 288 4137ft 130kts
11-Nov-23 16:09 34.321845 -119.639376 288 3436ft 130kts
11-Nov-23 16:10 34.333199 -119.680414 288 2999ft 125kts
11-Nov-23 16:11 34.357236 -119.709183 339 2553ft 143kts
11-Nov-23 16:12 34.389180 -119.732589 322 2080ft 126kts
11-Nov-23 16:13 34.414976 -119.758757 314 1375ft 115kts
11-Nov-23 16:14 34.428754 -119.788339 274 764ft 101kts
11-Nov-23 16:15 34.428292 -119.816363 268 351ft 67kts
11-Nov-23 16:16 34.427845 -119.837975 268 17ft 57kts
11-Nov-23 16:17 34.428122 -119.846198 43 13ft 0kts
11-Nov-23 16:18 34.428522 -119.845470 63 13ft 13kts
11-Nov-23 16:19 34.429078 -119.845296 232 13ft 0kts

Navigation Log

Ident Type
Flight plan parsing failed, navigation log unavailable